»·PEaware :: N7274H KSAN-KSBP

N7274H :: KSAN-KSBP

FLIGHT INFORMATION

Flight Status: Arrived
Operator: Privately registered:
United States
More flights under this callsign
Pilot: Diego A. (26407)
Aircraft: BEECH AIRCRAFT A90-E90 KING AIR
(BE9L)
More flights by this aircraft type
Origin: KSAN San Diego Intl-Lindbergh
United States
Destination: KSBP San Luis Co Regl
United States
More flights between these airports :: More routes between these airports
Route: +PEBLE6 SXC V208 VTU V25 POZOE
File this flight plan on PilotEdge
Remarks:
Altitude:
(Current/Filed)
12,000ft
Speed:
(Current/Filed)
240kts
Departed: 29-May-20 02:40 PM
Arrived: 29-May-20 03:50 PM
Distance/Time
Traveled:
228nm/1:09
Distance/Time
To Go:
Arrived

Flight Plot

Page will automatically refresh every two minutes.

Flight plan parsing failed; only flown route is shown


Map Options




Map Legend


Flown Route
Filed Route
Departure Airport
Arrival Airport
Navaid (VOR, NDB)
Fix

Horizontal Profiles

Position Reports

Time Latitude Longitude Heading Altitude Ground
Speed
29-May-20 13:57 32.734626 -117.179503 14 20ft 0kts
29-May-20 13:58 32.734630 -117.179501 14 20ft 0kts
29-May-20 13:59 32.734634 -117.179500 14 20ft 0kts
29-May-20 14:00 32.734452 -117.179555 14 20ft 2kts
29-May-20 14:01 32.734420 -117.179565 14 20ft 2kts
29-May-20 14:04 32.734394 -117.179573 14 20ft 0kts
29-May-20 14:05 32.734399 -117.179572 14 20ft 0kts
29-May-20 14:06 32.734403 -117.179570 14 20ft 0kts
29-May-20 14:07 32.734408 -117.179569 14 20ft 0kts
29-May-20 14:08 32.734413 -117.179567 14 20ft 0kts
29-May-20 14:09 32.734417 -117.179566 14 20ft 0kts
29-May-20 14:10 32.734419 -117.179566 14 20ft 0kts
29-May-20 14:11 32.734420 -117.179565 14 20ft 0kts
29-May-20 14:12 32.734422 -117.179565 14 20ft 0kts
29-May-20 14:13 32.734424 -117.179564 14 20ft 0kts
29-May-20 14:14 32.734425 -117.179564 14 20ft 0kts
29-May-20 14:15 32.734427 -117.179563 14 20ft 0kts
29-May-20 14:16 32.734429 -117.179563 14 20ft 0kts
29-May-20 14:17 32.734430 -117.179562 14 20ft 0kts
29-May-20 14:18 32.734432 -117.179562 14 20ft 0kts
29-May-20 14:19 32.734434 -117.179561 14 20ft 0kts
29-May-20 14:20 32.734435 -117.179561 14 20ft 0kts
29-May-20 14:21 32.734437 -117.179560 14 20ft 0kts
29-May-20 14:22 32.734439 -117.179560 14 20ft 0kts
29-May-20 14:23 32.734440 -117.179559 14 20ft 0kts
29-May-20 14:24 32.734442 -117.179559 14 20ft 0kts
29-May-20 14:25 32.734444 -117.179558 14 20ft 0kts
29-May-20 14:26 32.734446 -117.179558 14 20ft 0kts
29-May-20 14:27 32.734447 -117.179557 14 20ft 0kts
29-May-20 14:28 32.734449 -117.179557 14 20ft 0kts
29-May-20 14:29 32.734451 -117.179556 13 20ft 0kts
29-May-20 14:30 32.734453 -117.179556 13 20ft 0kts
29-May-20 14:31 32.734454 -117.179555 13 20ft 0kts
29-May-20 14:32 32.734456 -117.179555 13 20ft 0kts
29-May-20 14:33 32.734329 -117.179592 16 20ft 1kts
29-May-20 14:34 32.733130 -117.179493 150 20ft 9kts
29-May-20 14:35 32.730948 -117.175482 150 20ft 0kts
29-May-20 14:36 32.730948 -117.175482 150 20ft 0kts
29-May-20 14:37 32.730948 -117.175482 150 20ft 0kts
29-May-20 14:38 32.730933 -117.175472 150 20ft 2kts
29-May-20 14:39 32.731579 -117.181513 285 20ft 84kts
29-May-20 14:40 32.739506 -117.217772 295 600ft 130kts
29-May-20 14:41 32.761902 -117.258275 315 1070ft 161kts
29-May-20 14:42 32.792618 -117.293217 307 1912ft 159kts
29-May-20 14:43 32.820249 -117.332020 321 2788ft 157kts
29-May-20 14:44 32.852066 -117.358856 321 4165ft 128kts
29-May-20 14:45 32.882392 -117.384375 316 5682ft 139kts
29-May-20 14:46 32.910187 -117.418022 305 7192ft 144kts
29-May-20 14:47 32.934669 -117.456486 302 8674ft 146kts
29-May-20 14:48 32.959674 -117.495960 303 10021ft 153kts
29-May-20 14:49 32.986804 -117.536374 302 11314ft 158kts
29-May-20 14:50 33.016163 -117.580977 302 12012ft 198kts
29-May-20 14:51 33.053388 -117.640828 302 11987ft 241kts
29-May-20 14:52 33.095913 -117.705469 304 11981ft 252kts
29-May-20 14:53 33.139940 -117.771119 304 11979ft 254kts
29-May-20 14:54 33.181932 -117.838861 298 11977ft 253kts
29-May-20 14:55 33.214410 -117.912958 288 11986ft 249kts
29-May-20 14:56 33.237766 -117.987647 282 11985ft 247kts
29-May-20 14:57 33.260162 -118.065814 284 11988ft 250kts
29-May-20 14:59 33.286143 -118.143542 286 11991ft 251kts
29-May-20 15:00 33.310218 -118.217753 284 11996ft 251kts
29-May-20 15:01 33.335206 -118.295990 285 11997ft 251kts
29-May-20 15:02 33.360257 -118.373884 285 11999ft 251kts
29-May-20 15:03 33.391368 -118.448525 310 12004ft 259kts
29-May-20 15:04 33.438649 -118.513228 308 12001ft 259kts
29-May-20 15:05 33.485956 -118.578172 305 11995ft 259kts
29-May-20 15:06 33.532175 -118.644365 306 11991ft 259kts
29-May-20 15:07 33.578548 -118.710540 306 11987ft 259kts
29-May-20 15:08 33.624807 -118.776915 306 11985ft 260kts
29-May-20 15:09 33.671456 -118.843655 306 11984ft 260kts
29-May-20 15:10 33.717820 -118.910391 306 11982ft 260kts
29-May-20 15:11 33.764870 -118.976802 307 11981ft 261kts
29-May-20 15:12 33.821777 -119.030292 343 11975ft 261kts
29-May-20 15:13 33.892441 -119.031182 9 12003ft 253kts
29-May-20 15:14 33.959550 -119.027686 355 12006ft 256kts
29-May-20 15:15 34.029776 -119.048459 346 12005ft 257kts
29-May-20 15:15 34.087763 -119.063141 354 12007ft 254kts
29-May-20 15:17 34.150344 -119.111079 297 12004ft 252kts
29-May-20 15:18 34.188757 -119.181824 303 11998ft 254kts
29-May-20 15:18 34.221676 -119.240773 299 11997ft 254kts
29-May-20 15:20 34.267842 -119.323194 300 11999ft 254kts
29-May-20 15:20 34.300907 -119.382420 300 12000ft 255kts
29-May-20 15:21 34.340419 -119.453662 300 12000ft 255kts
29-May-20 15:23 34.385940 -119.535383 300 11998ft 256kts
29-May-20 15:23 34.416345 -119.595384 289 11996ft 253kts
29-May-20 15:24 34.454240 -119.667990 303 11985ft 257kts
29-May-20 15:25 34.496761 -119.737686 303 11983ft 257kts
29-May-20 15:26 34.540383 -119.801621 334 11977ft 259kts
29-May-20 15:27 34.601600 -119.843863 330 11972ft 260kts
29-May-20 15:28 34.665582 -119.884283 328 11954ft 259kts
29-May-20 15:29 34.727016 -119.930188 329 11946ft 259kts
29-May-20 15:30 34.788975 -119.975102 329 11944ft 258kts
29-May-20 15:31 34.848166 -120.018630 329 11946ft 258kts
29-May-20 15:32 34.911146 -120.065171 329 10518ft 261kts
29-May-20 15:33 34.970894 -120.108875 329 8904ft 240kts
29-May-20 15:34 35.028070 -120.150535 329 6519ft 229kts
29-May-20 15:35 35.075982 -120.185609 328 5972ft 171kts
29-May-20 15:36 35.102906 -120.220607 268 5746ft 141kts
29-May-20 15:37 35.103161 -120.272116 267 4829ft 167kts
29-May-20 15:38 35.102412 -120.331867 266 4046ft 174kts
29-May-20 15:39 35.101571 -120.385663 266 4014ft 161kts
29-May-20 15:40 35.100660 -120.442049 266 4017ft 168kts
29-May-20 15:41 35.099604 -120.499096 265 4023ft 168kts
29-May-20 15:42 35.098500 -120.556299 265 4026ft 168kts
29-May-20 15:43 35.117733 -120.601529 343 4043ft 177kts
29-May-20 15:44 35.165944 -120.615928 345 4037ft 177kts
29-May-20 15:45 35.213453 -120.623798 17 4041ft 172kts
29-May-20 15:46 35.233993 -120.579520 109 4038ft 161kts
29-May-20 15:47 35.201031 -120.561924 234 3060ft 173kts
29-May-20 15:48 35.221784 -120.612072 297 963ft 191kts
29-May-20 15:49 35.240533 -120.646658 312 217ft 20kts
29-May-20 15:50 35.240619 -120.644891 123 217ft 16kts
29-May-20 15:51 35.238814 -120.641723 110 217ft 1kts
29-May-20 15:52 35.239065 -120.641582 356 217ft 0kts
29-May-20 15:53 35.239066 -120.641582 356 217ft 0kts
29-May-20 15:54 35.239066 -120.641582 356 217ft 0kts
29-May-20 15:55 35.239066 -120.641582 356 217ft 0kts
29-May-20 15:56 35.239066 -120.641582 356 217ft 0kts
29-May-20 15:57 35.239066 -120.641582 356 217ft 0kts
29-May-20 15:58 35.239066 -120.641582 356 217ft 0kts
29-May-20 15:59 35.239066 -120.641582 356 217ft 0kts
29-May-20 16:00 35.239066 -120.641582 356 217ft 0kts

Navigation Log

Ident Type
Flight plan parsing failed, navigation log unavailable